Time;durP1;ratioP1;P1;durP2;ratioP2;P2;SDS_P1;SDS_P2;PMS_P1;PMS_P2;Temp;Humidity;BMP_temperature;BMP_pressure;BME280_temperature;BME280_humidity;BME280_pressure;Samples;Min_cycle;Max_cycle;Signal;HPM_P1;HPM_P2
2023/07/26 00:01:41;;;;;;;10.17;7.80;;;;;;;;;;5039445;28;20691;-64
2023/07/26 00:04:09;;;;;;;9.53;7.43;;;;;;;;;;5039495;28;20682;-63
2023/07/26 00:06:37;;;;;;;8.73;7.87;;;;;;;;;;5005902;28;20690;-65
2023/07/26 00:09:08;;;;;;;8.50;7.90;;;;;;;;;;5040184;28;20693;-63
2023/07/26 00:11:37;;;;;;;10.43;9.57;;;;;;;;;;5039700;28;20765;-64
2023/07/26 00:14:06;;;;;;;13.23;10.73;;;;;;;;;;5033110;28;20724;-64
2023/07/26 00:16:34;;;;;;;12.23;10.27;;;;;;;;;;5020261;28;20676;-63
2023/07/26 00:19:03;;;;;;;10.30;9.33;;;;;;;;;;5027920;28;21105;-63
2023/07/26 00:21:31;;;;;;;13.70;10.63;;;;;;;;;;5041049;28;20702;-63
2023/07/26 00:23:59;;;;;;;11.17;10.13;;;;;;;;;;5040092;28;20702;-63
2023/07/26 00:26:28;;;;;;;12.20;10.53;;;;;;;;;;5039093;28;20684;-64
2023/07/26 00:28:57;;;;;;;14.17;11.87;;;;;;;;;;5036703;28;21261;-65
2023/07/26 00:31:25;;;;;;;11.97;10.67;;;;;;;;;;5035246;28;20778;-63
2023/07/26 00:33:54;;;;;;;14.30;11.10;;;;;;;;;;5039992;28;21208;-63
2023/07/26 00:36:22;;;;;;;13.13;10.97;;;;;;;;;;5040173;28;20749;-63
2023/07/26 00:38:50;;;;;;;13.00;11.03;;;;;;;;;;5040757;28;20690;-66
2023/07/26 00:41:18;;;;;;;10.13;9.30;;;;;;;;;;5021889;28;20666;-63
2023/07/26 00:43:47;;;;;;;11.10;10.20;;;;;;;;;;5039094;28;20725;-64
2023/07/26 00:46:17;;;;;;;10.20;9.20;;;;;;;;;;5039707;28;21130;-65
2023/07/26 00:48:46;;;;;;;10.63;9.53;;;;;;;;;;5040151;28;20691;-64
2023/07/26 00:51:14;;;;;;;10.70;8.47;;;;;;;;;;5039390;28;20711;-63
2023/07/26 00:53:43;;;;;;;9.20;8.30;;;;;;;;;;5040129;28;20719;-63
2023/07/26 00:56:11;;;;;;;8.47;7.73;;;;;;;;;;5038513;28;21034;-63
2023/07/26 00:58:40;;;;;;;9.40;8.53;;;;;;;;;;5039506;28;20714;-63
2023/07/26 01:01:08;;;;;;;11.40;9.90;;;;;;;;;;5035478;28;20666;-68
2023/07/26 01:03:38;;;;;;;10.00;9.30;;;;;;;;;;5022892;28;20631;-68
2023/07/26 01:06:11;;;;;;;13.20;8.77;;;;;;;;;;5030366;28;20992;-68
2023/07/26 01:08:47;;;;;;;9.77;8.87;;;;;;;;;;5016811;28;20611;-68
2023/07/26 01:11:18;;;;;;;11.27;8.10;;;;;;;;;;5030934;28;20703;-68
2023/07/26 01:13:50;;;;;;;10.30;7.90;;;;;;;;;;5031687;28;20579;-68
2023/07/26 01:16:19;;;;;;;10.97;8.23;;;;;;;;;;5014105;28;20614;-68
2023/07/26 01:18:49;;;;;;;8.87;7.97;;;;;;;;;;5014479;28;20593;-68
2023/07/26 01:21:17;;;;;;;9.60;8.00;;;;;;;;;;5012863;28;20621;-68
2023/07/26 01:23:47;;;;;;;10.20;8.10;;;;;;;;;;4994726;28;21005;-69
2023/07/26 01:26:15;;;;;;;9.93;9.03;;;;;;;;;;5028013;28;20624;-68
2023/07/26 01:28:43;;;;;;;13.63;8.13;;;;;;;;;;5030071;28;20616;-68
2023/07/26 01:31:13;;;;;;;9.87;8.87;;;;;;;;;;5010167;28;20635;-69
2023/07/26 01:33:42;;;;;;;10.27;9.07;;;;;;;;;;5027092;28;20607;-68
2023/07/26 01:36:10;;;;;;;11.20;8.47;;;;;;;;;;5031140;28;21170;-68
2023/07/26 01:38:39;;;;;;;11.07;9.97;;;;;;;;;;5031195;28;20602;-68
2023/07/26 01:41:09;;;;;;;16.60;10.07;;;;;;;;;;5031167;28;20609;-68
2023/07/26 01:43:38;;;;;;;21.30;10.47;;;;;;;;;;5030635;28;20619;-68
2023/07/26 01:46:08;;;;;;;10.67;9.57;;;;;;;;;;5031186;28;20617;-68
2023/07/26 01:48:37;;;;;;;12.27;10.23;;;;;;;;;;5014121;28;20621;-69
2023/07/26 01:51:05;;;;;;;11.70;10.33;;;;;;;;;;5031286;28;20603;-69
2023/07/26 01:53:34;;;;;;;12.13;9.97;;;;;;;;;;5030835;28;21143;-69
2023/07/26 01:56:02;;;;;;;11.07;10.00;;;;;;;;;;4997223;28;20632;-69
2023/07/26 01:58:33;;;;;;;11.47;10.27;;;;;;;;;;5013079;28;20632;-69
2023/07/26 02:01:02;;;;;;;12.40;10.63;;;;;;;;;;5013162;28;20603;-69
2023/07/26 02:03:30;;;;;;;11.60;10.30;;;;;;;;;;5011243;28;20666;-69
2023/07/26 02:05:58;;;;;;;22.80;12.13;;;;;;;;;;5012757;28;20628;-69
2023/07/26 02:08:26;;;;;;;11.23;10.10;;;;;;;;;;5032304;28;20606;-66
2023/07/26 02:10:55;;;;;;;11.63;10.03;;;;;;;;;;5034496;28;20678;-66
2023/07/26 02:13:23;;;;;;;9.87;9.03;;;;;;;;;;5019350;28;20620;-67
2023/07/26 02:15:53;;;;;;;11.30;9.40;;;;;;;;;;5017705;28;20624;-68
2023/07/26 02:18:23;;;;;;;11.33;9.10;;;;;;;;;;5017661;28;20978;-69
2023/07/26 02:20:52;;;;;;;10.47;9.40;;;;;;;;;;5034956;28;20949;-66
2023/07/26 02:23:20;;;;;;;10.60;9.50;;;;;;;;;;5017454;28;20655;-67
2023/07/26 02:25:48;;;;;;;11.60;10.60;;;;;;;;;;5035017;28;20605;-68
2023/07/26 02:28:16;;;;;;;10.40;9.40;;;;;;;;;;5016525;28;20619;-67
2023/07/26 02:30:44;;;;;;;18.00;10.73;;;;;;;;;;5005671;28;20656;-68
2023/07/26 02:33:14;;;;;;;11.97;10.67;;;;;;;;;;5017996;28;20888;-68
2023/07/26 02:35:42;;;;;;;11.60;10.37;;;;;;;;;;5016918;28;20610;-67
2023/07/26 02:38:11;;;;;;;10.53;9.60;;;;;;;;;;5034661;28;20961;-67
2023/07/26 02:40:39;;;;;;;10.97;9.97;;;;;;;;;;5033932;28;20609;-69
2023/07/26 02:43:07;;;;;;;11.37;9.30;;;;;;;;;;5033820;28;20609;-67
2023/07/26 02:45:35;;;;;;;11.57;10.17;;;;;;;;;;5033782;28;20631;-67
2023/07/26 02:48:05;;;;;;;12.53;11.00;;;;;;;;;;5012933;28;20594;-68
2023/07/26 02:50:35;;;;;;;11.73;9.90;;;;;;;;;;5034199;28;20640;-67
2023/07/26 02:53:03;;;;;;;14.80;11.07;;;;;;;;;;5033907;28;20583;-69
2023/07/26 02:55:31;;;;;;;12.33;11.03;;;;;;;;;;5034450;28;20628;-67
2023/07/26 02:58:00;;;;;;;19.87;11.40;;;;;;;;;;5033676;28;21018;-67
2023/07/26 03:00:28;;;;;;;14.03;11.20;;;;;;;;;;5034111;28;20617;-68
2023/07/26 03:02:56;;;;;;;11.03;9.90;;;;;;;;;;5032440;28;21159;-68
2023/07/26 03:05:25;;;;;;;11.83;10.70;;;;;;;;;;5032783;28;20686;-68
2023/07/26 03:07:55;;;;;;;13.57;12.17;;;;;;;;;;5032225;28;21161;-68
2023/07/26 03:10:24;;;;;;;12.47;11.10;;;;;;;;;;5015642;28;20648;-66
2023/07/26 03:12:52;;;;;;;16.57;11.07;;;;;;;;;;5033527;28;21159;-67
2023/07/26 03:15:20;;;;;;;13.50;12.10;;;;;;;;;;5028235;28;20606;-68
2023/07/26 03:17:48;;;;;;;13.60;12.20;;;;;;;;;;5014046;28;20587;-68
2023/07/26 03:20:16;;;;;;;12.80;11.60;;;;;;;;;;5026651;28;20605;-68
2023/07/26 03:22:44;;;;;;;13.13;11.10;;;;;;;;;;5033670;28;20992;-68
2023/07/26 03:25:13;;;;;;;11.83;10.80;;;;;;;;;;5033233;28;21017;-68
2023/07/26 03:27:41;;;;;;;11.70;10.70;;;;;;;;;;5033964;28;20598;-68
2023/07/26 03:30:09;;;;;;;13.33;10.37;;;;;;;;;;5016245;28;20670;-68
2023/07/26 03:32:37;;;;;;;10.57;9.77;;;;;;;;;;5018975;28;20600;-68
2023/07/26 03:35:06;;;;;;;12.50;11.17;;;;;;;;;;5013800;28;20595;-68
2023/07/26 03:37:34;;;;;;;14.03;11.77;;;;;;;;;;5012982;28;21401;-68
2023/07/26 03:40:02;;;;;;;12.20;10.87;;;;;;;;;;5031083;28;20595;-68
2023/07/26 03:42:32;;;;;;;10.63;9.77;;;;;;;;;;5013641;28;20605;-69
2023/07/26 03:45:00;;;;;;;11.87;10.77;;;;;;;;;;5019605;28;20666;-68
2023/07/26 03:47:28;;;;;;;11.15;10.15;;;;;;;;;;5033057;28;20634;-68
2023/07/26 03:49:56;;;;;;;12.05;11.05;;;;;;;;;;5033041;28;20205;-68
2023/07/26 03:52:24;;;;;;;11.20;10.00;;;;;;;;;;5032811;28;20320;-67
2023/07/26 03:54:52;;;;;;;12.50;11.30;;;;;;;;;;5033684;28;21040;-68
2023/07/26 03:57:20;;;;;;;11.03;10.03;;;;;;;;;;5032442;28;21024;-68
2023/07/26 03:59:50;;;;;;;10.90;9.97;;;;;;;;;;5033311;28;20620;-68
2023/07/26 04:02:21;;;;;;;16.37;10.50;;;;;;;;;;5014276;28;20604;-68
2023/07/26 04:04:49;;;;;;;11.57;10.50;;;;;;;;;;5032096;28;20645;-68
2023/07/26 04:07:17;;;;;;;11.27;10.33;;;;;;;;;;5032304;28;20684;-68
2023/07/26 04:09:46;;;;;;;11.57;10.40;;;;;;;;;;5031530;28;21189;-69
2023/07/26 04:12:14;;;;;;;14.60;10.93;;;;;;;;;;5032261;28;20912;-68
2023/07/26 04:14:42;;;;;;;12.03;10.83;;;;;;;;;;5032458;28;20594;-68
2023/07/26 04:17:12;;;;;;;11.97;10.87;;;;;;;;;;5030607;28;20631;-68
2023/07/26 04:19:40;;;;;;;12.25;11.05;;;;;;;;;;5032592;28;20603;-68
2023/07/26 04:22:08;;;;;;;13.37;12.20;;;;;;;;;;5032163;28;20206;-68
2023/07/26 04:24:42;;;;;;;12.57;11.57;;;;;;;;;;5032314;28;20668;-68
2023/07/26 04:27:10;;;;;;;10.70;9.70;;;;;;;;;;5018914;28;20634;-68
2023/07/26 04:29:38;;;;;;;11.93;10.77;;;;;;;;;;5031780;28;20631;-67
2023/07/26 04:32:07;;;;;;;11.40;10.40;;;;;;;;;;5017224;28;20628;-68
2023/07/26 04:34:36;;;;;;;15.70;11.33;;;;;;;;;;5026416;28;20672;-68
2023/07/26 04:37:05;;;;;;;11.57;10.38;;;;;;;;;;5031570;28;20685;-68
2023/07/26 04:39:33;;;;;;;13.67;12.37;;;;;;;;;;5032383;28;20198;-68
2023/07/26 04:42:01;;;;;;;14.67;11.07;;;;;;;;;;5030508;28;20606;-68
2023/07/26 04:44:29;;;;;;;12.60;11.40;;;;;;;;;;5028390;28;20663;-68
2023/07/26 04:46:57;;;;;;;13.48;12.07;;;;;;;;;;5031798;28;20605;-68
2023/07/26 04:49:26;;;;;;;12.43;11.27;;;;;;;;;;5031561;28;20197;-68
2023/07/26 04:51:55;;;;;;;16.53;12.43;;;;;;;;;;5031606;28;20634;-69
2023/07/26 04:54:24;;;;;;;13.07;11.43;;;;;;;;;;5031960;28;20965;-69
2023/07/26 04:56:52;;;;;;;14.23;11.65;;;;;;;;;;5019605;28;21206;-69
2023/07/26 04:59:20;;;;;;;12.60;11.50;;;;;;;;;;5014512;28;20655;-69
2023/07/26 05:01:48;;;;;;;12.50;11.43;;;;;;;;;;5030302;28;20668;-69
2023/07/26 05:04:16;;;;;;;10.73;9.73;;;;;;;;;;5030350;28;20982;-66
2023/07/26 05:06:45;;;;;;;11.97;10.17;;;;;;;;;;5030898;28;21025;-68
2023/07/26 05:09:14;;;;;;;13.13;10.83;;;;;;;;;;5029567;28;20635;-68
2023/07/26 05:11:42;;;;;;;14.80;9.90;;;;;;;;;;5030481;28;20660;-67
2023/07/26 05:14:11;;;;;;;11.03;9.33;;;;;;;;;;5028347;28;20197;-68
2023/07/26 05:16:39;;;;;;;12.23;10.17;;;;;;;;;;5030128;28;20636;-67
2023/07/26 05:19:07;;;;;;;11.27;10.33;;;;;;;;;;5031346;28;20993;-68
2023/07/26 05:21:35;;;;;;;11.17;10.07;;;;;;;;;;5031291;28;20971;-68
2023/07/26 05:24:04;;;;;;;9.90;9.10;;;;;;;;;;5030366;28;21182;-67
2023/07/26 05:26:33;;;;;;;11.43;9.50;;;;;;;;;;5030848;28;20626;-68
2023/07/26 05:29:01;;;;;;;9.03;8.20;;;;;;;;;;5031440;28;20591;-68
2023/07/26 05:31:30;;;;;;;9.40;8.50;;;;;;;;;;5031358;28;20599;-68
2023/07/26 05:33:58;;;;;;;10.43;8.90;;;;;;;;;;5029149;28;20628;-67
2023/07/26 05:36:26;;;;;;;9.60;8.90;;;;;;;;;;5028290;28;20583;-67
2023/07/26 05:38:54;;;;;;;10.40;9.50;;;;;;;;;;5028558;28;20598;-68
2023/07/26 05:41:26;;;;;;;11.07;8.53;;;;;;;;;;5028759;28;20623;-68
2023/07/26 05:43:56;;;;;;;8.93;8.23;;;;;;;;;;5029283;28;20596;-68
2023/07/26 05:46:24;;;;;;;10.37;9.27;;;;;;;;;;5027647;28;21207;-68
2023/07/26 05:48:52;;;;;;;8.47;7.67;;;;;;;;;;5018023;28;20598;-67
2023/07/26 05:51:21;;;;;;;10.40;9.47;;;;;;;;;;5030633;28;20709;-68
2023/07/26 05:53:49;;;;;;;10.17;9.30;;;;;;;;;;5029759;28;20945;-67
2023/07/26 05:56:17;;;;;;;11.13;9.67;;;;;;;;;;5029704;28;20634;-67
2023/07/26 05:58:45;;;;;;;10.53;9.63;;;;;;;;;;5030283;28;20999;-67
2023/07/26 06:01:15;;;;;;;9.13;8.23;;;;;;;;;;5036720;28;20712;-66
2023/07/26 06:03:43;;;;;;;9.27;8.30;;;;;;;;;;5036278;28;20697;-67
2023/07/26 06:06:11;;;;;;;8.87;8.17;;;;;;;;;;5010273;28;20622;-66
2023/07/26 06:08:40;;;;;;;9.10;8.00;;;;;;;;;;5030024;28;20597;-67
2023/07/26 06:11:08;;;;;;;7.57;6.97;;;;;;;;;;5003901;28;21240;-68
2023/07/26 06:13:37;;;;;;;13.70;8.33;;;;;;;;;;5028380;28;21166;-67
2023/07/26 06:16:05;;;;;;;17.33;8.10;;;;;;;;;;5027642;28;20591;-67
2023/07/26 06:18:35;;;;;;;17.37;7.80;;;;;;;;;;5012328;28;20624;-67
2023/07/26 06:21:03;;;;;;;9.80;8.90;;;;;;;;;;5032119;28;20677;-66
2023/07/26 06:23:31;;;;;;;9.77;8.47;;;;;;;;;;5014554;28;20597;-67
2023/07/26 06:25:59;;;;;;;8.83;8.00;;;;;;;;;;5025661;28;20680;-67
2023/07/26 06:28:28;;;;;;;9.23;8.33;;;;;;;;;;5026298;28;20610;-67
2023/07/26 06:30:56;;;;;;;10.17;9.07;;;;;;;;;;5022212;28;20619;-66
2023/07/26 06:33:25;;;;;;;10.10;9.30;;;;;;;;;;5028161;28;21172;-66
2023/07/26 06:35:55;;;;;;;11.20;9.10;;;;;;;;;;5010170;28;20642;-66
2023/07/26 06:38:24;;;;;;;11.33;9.97;;;;;;;;;;5028688;28;20591;-66
2023/07/26 06:40:52;;;;;;;10.57;9.70;;;;;;;;;;5027515;28;20591;-66
2023/07/26 06:43:20;;;;;;;11.40;10.00;;;;;;;;;;5028305;28;20604;-65
2023/07/26 06:45:50;;;;;;;13.57;11.00;;;;;;;;;;5028970;28;20997;-66
2023/07/26 06:48:18;;;;;;;11.90;10.83;;;;;;;;;;5012578;28;20599;-67
2023/07/26 06:50:47;;;;;;;12.00;11.10;;;;;;;;;;5036008;28;20714;-67
2023/07/26 06:53:16;;;;;;;11.17;9.90;;;;;;;;;;5039357;28;20701;-68
2023/07/26 06:55:44;;;;;;;10.80;9.80;;;;;;;;;;5037981;28;20593;-67
2023/07/26 06:58:13;;;;;;;12.20;9.60;;;;;;;;;;5037210;28;20618;-66
2023/07/26 07:00:41;;;;;;;9.27;8.47;;;;;;;;;;5034030;28;20628;-66
2023/07/26 07:03:09;;;;;;;9.43;8.73;;;;;;;;;;5025799;28;20599;-67
2023/07/26 07:05:37;;;;;;;8.90;8.20;;;;;;;;;;5016654;28;20659;-66
2023/07/26 07:08:05;;;;;;;9.70;8.23;;;;;;;;;;5018067;28;20948;-66
2023/07/26 07:10:35;;;;;;;8.90;8.10;;;;;;;;;;5030052;28;20669;-66
2023/07/26 07:13:03;;;;;;;8.90;7.40;;;;;;;;;;5030764;28;20615;-67
2023/07/26 07:15:31;;;;;;;9.30;8.37;;;;;;;;;;5026768;28;21004;-67
2023/07/26 07:18:00;;;;;;;8.90;8.00;;;;;;;;;;5032993;28;20653;-65
2023/07/26 07:20:28;;;;;;;7.43;6.73;;;;;;;;;;5026808;28;20678;-67
2023/07/26 07:22:56;;;;;;;10.03;6.90;;;;;;;;;;5020919;28;20700;-66
2023/07/26 07:25:24;;;;;;;6.80;6.20;;;;;;;;;;5033050;28;21237;-67
2023/07/26 07:27:54;;;;;;;6.23;5.67;;;;;;;;;;5021563;28;20680;-67
2023/07/26 07:30:22;;;;;;;4.60;4.33;;;;;;;;;;5043639;28;20684;-67
2023/07/26 07:32:51;;;;;;;28.17;5.97;;;;;;;;;;5043183;28;20694;-66
2023/07/26 07:35:19;;;;;;;5.20;4.83;;;;;;;;;;5017719;28;20609;-67
2023/07/26 07:37:47;;;;;;;4.80;4.40;;;;;;;;;;5015793;28;20612;-66
2023/07/26 07:40:15;;;;;;;6.27;5.30;;;;;;;;;;5016016;28;20673;-67
2023/07/26 07:42:43;;;;;;;4.63;4.23;;;;;;;;;;5033364;28;20605;-67
2023/07/26 07:45:13;;;;;;;6.50;3.83;;;;;;;;;;5030934;28;20691;-67
2023/07/26 07:47:41;;;;;;;4.10;3.70;;;;;;;;;;5045925;28;20695;-67
2023/07/26 07:50:09;;;;;;;4.33;4.00;;;;;;;;;;5032408;28;20598;-67
2023/07/26 07:52:38;;;;;;;3.80;3.50;;;;;;;;;;5049052;28;20629;-66
2023/07/26 07:55:06;;;;;;;3.80;3.57;;;;;;;;;;5048548;28;20615;-66
2023/07/26 07:57:34;;;;;;;4.27;3.83;;;;;;;;;;5046352;28;20702;-67
2023/07/26 08:00:04;;;;;;;5.20;3.47;;;;;;;;;;5033123;28;20670;-67
2023/07/26 08:02:41;;;;;;;4.57;4.17;;;;;;;;;;5041933;28;20681;-65
2023/07/26 08:05:10;;;;;;;6.17;4.10;;;;;;;;;;5033273;28;20690;-67
2023/07/26 08:07:39;;;;;;;3.97;3.70;;;;;;;;;;5040332;28;21093;-67
2023/07/26 08:10:07;;;;;;;6.23;3.40;;;;;;;;;;5020705;28;20635;-67
2023/07/26 08:12:36;;;;;;;5.23;3.23;;;;;;;;;;5033670;28;20583;-67
2023/07/26 08:15:04;;;;;;;7.27;3.30;;;;;;;;;;5021853;28;20627;-67
2023/07/26 08:17:33;;;;;;;4.87;2.90;;;;;;;;;;5033172;28;20625;-65
2023/07/26 08:20:02;;;;;;;6.43;3.37;;;;;;;;;;5042157;28;20595;-65
2023/07/26 08:22:30;;;;;;;3.17;2.87;;;;;;;;;;5045431;28;21032;-65
2023/07/26 08:24:58;;;;;;;4.30;3.17;;;;;;;;;;5042857;28;20696;-65
2023/07/26 08:27:27;;;;;;;2.97;2.73;;;;;;;;;;5040006;28;20662;-66
2023/07/26 08:29:55;;;;;;;3.17;2.97;;;;;;;;;;5048095;28;21057;-66
2023/07/26 08:32:23;;;;;;;4.30;2.77;;;;;;;;;;5042094;28;20691;-67
2023/07/26 08:34:51;;;;;;;2.47;2.27;;;;;;;;;;5032327;28;20762;-67
2023/07/26 08:37:21;;;;;;;4.87;2.60;;;;;;;;;;5015591;28;20595;-68
2023/07/26 08:39:50;;;;;;;2.40;2.23;;;;;;;;;;5023542;28;20623;-67
2023/07/26 08:42:18;;;;;;;2.83;2.63;;;;;;;;;;5024288;28;20685;-67
2023/07/26 08:44:48;;;;;;;2.50;2.40;;;;;;;;;;5029058;28;20602;-68
2023/07/26 08:47:16;;;;;;;5.63;2.40;;;;;;;;;;5026538;28;20660;-67
2023/07/26 08:49:45;;;;;;;3.83;2.73;;;;;;;;;;5028346;28;20629;-67
2023/07/26 08:52:13;;;;;;;3.20;2.90;;;;;;;;;;5011475;28;20632;-67
2023/07/26 08:54:44;;;;;;;2.40;2.30;;;;;;;;;;5024052;28;20646;-68
2023/07/26 08:57:12;;;;;;;2.87;2.60;;;;;;;;;;5011973;28;20606;-67
2023/07/26 08:59:41;;;;;;;3.40;3.07;;;;;;;;;;5030012;28;20643;-67
2023/07/26 09:02:10;;;;;;;3.50;3.07;;;;;;;;;;5027916;28;20689;-68
2023/07/26 09:04:38;;;;;;;3.10;2.70;;;;;;;;;;5022742;28;20616;-68
2023/07/26 09:07:07;;;;;;;3.03;2.10;;;;;;;;;;5028096;28;21199;-67
2023/07/26 09:09:36;;;;;;;2.80;2.67;;;;;;;;;;5026000;28;20624;-67
2023/07/26 09:12:06;;;;;;;3.13;2.50;;;;;;;;;;5006530;28;20660;-68
2023/07/26 09:14:35;;;;;;;2.90;2.80;;;;;;;;;;5012050;28;20560;-68
2023/07/26 09:17:03;;;;;;;3.30;3.10;;;;;;;;;;5023015;28;20712;-68
2023/07/26 09:19:32;;;;;;;3.20;2.90;;;;;;;;;;5021251;28;20631;-68
2023/07/26 09:22:02;;;;;;;6.40;3.53;;;;;;;;;;5011773;28;20621;-68
2023/07/26 09:24:30;;;;;;;3.80;3.10;;;;;;;;;;5011653;28;20635;-67
2023/07/26 09:27:03;;;;;;;3.60;3.10;;;;;;;;;;5010372;28;20671;-67
2023/07/26 09:29:33;;;;;;;3.67;3.43;;;;;;;;;;5011024;28;21021;-68
2023/07/26 09:32:02;;;;;;;3.33;3.10;;;;;;;;;;5011311;28;21189;-68
2023/07/26 09:34:30;;;;;;;3.60;3.30;;;;;;;;;;5013544;28;21264;-67
2023/07/26 09:36:59;;;;;;;4.20;3.30;;;;;;;;;;5022936;28;20614;-70
2023/07/26 09:39:28;;;;;;;4.23;3.70;;;;;;;;;;5028682;28;20620;-68
2023/07/26 09:42:06;;;;;;;5.93;3.80;;;;;;;;;;5024588;28;20631;-69
2023/07/26 09:44:36;;;;;;;3.80;3.70;;;;;;;;;;5027623;28;20648;-67
2023/07/26 09:47:05;;;;;;;3.33;3.23;;;;;;;;;;5030444;28;20705;-70
2023/07/26 09:49:33;;;;;;;4.07;3.77;;;;;;;;;;5015844;28;21156;-70
2023/07/26 09:52:02;;;;;;;4.60;3.50;;;;;;;;;;5025543;28;20630;-69
2023/07/26 09:54:31;;;;;;;3.90;3.70;;;;;;;;;;5030755;28;20618;-71
2023/07/26 09:56:59;;;;;;;3.70;3.50;;;;;;;;;;5029496;28;21058;-69
2023/07/26 09:59:29;;;;;;;4.10;3.80;;;;;;;;;;5029662;28;20623;-68
2023/07/26 10:02:00;;;;;;;5.37;4.37;;;;;;;;;;5030164;28;20620;-69
2023/07/26 10:04:33;;;;;;;5.03;4.63;;;;;;;;;;5029895;28;20954;-68
2023/07/26 10:07:02;;;;;;;5.30;5.00;;;;;;;;;;5013402;28;20648;-70
2023/07/26 10:09:32;;;;;;;4.73;4.50;;;;;;;;;;5014673;28;20626;-69
2023/07/26 10:12:02;;;;;;;4.17;3.97;;;;;;;;;;5024350;28;20672;-70
2023/07/26 10:14:31;;;;;;;5.53;5.10;;;;;;;;;;5030653;28;20580;-70
2023/07/26 10:17:02;;;;;;;5.13;4.93;;;;;;;;;;5031130;28;20608;-71
2023/07/26 10:19:30;;;;;;;5.67;5.30;;;;;;;;;;5030733;28;21132;-68
2023/07/26 10:21:59;;;;;;;5.60;5.30;;;;;;;;;;5030534;28;21165;-70
2023/07/26 10:24:27;;;;;;;6.00;5.70;;;;;;;;;;5015730;28;20979;-69
2023/07/26 10:26:56;;;;;;;6.03;5.60;;;;;;;;;;5012060;28;20660;-69
2023/07/26 10:29:26;;;;;;;6.17;5.70;;;;;;;;;;5030845;28;20638;-68
2023/07/26 10:32:02;;;;;;;6.50;6.30;;;;;;;;;;5034784;28;21250;-71
2023/07/26 10:34:30;;;;;;;6.10;5.80;;;;;;;;;;5032893;28;20946;-70
2023/07/26 10:36:59;;;;;;;5.57;5.37;;;;;;;;;;5032672;28;21266;-70
2023/07/26 10:39:32;;;;;;;5.63;5.30;;;;;;;;;;5033370;28;20645;-69
2023/07/26 10:42:01;;;;;;;6.73;6.43;;;;;;;;;;5016732;28;20595;-70
2023/07/26 10:44:29;;;;;;;6.60;6.20;;;;;;;;;;5031036;28;20842;-70
2023/07/26 10:47:03;;;;;;;6.73;6.23;;;;;;;;;;5027027;28;20629;-71
2023/07/26 10:49:34;;;;;;;7.70;7.30;;;;;;;;;;5014251;28;20583;-70
2023/07/26 10:52:02;;;;;;;7.83;7.43;;;;;;;;;;5031430;28;20650;-70
2023/07/26 10:54:35;;;;;;;6.90;6.60;;;;;;;;;;5033329;28;20591;-70
2023/07/26 10:57:16;;;;;;;7.30;6.80;;;;;;;;;;5034250;28;20677;-68
2023/07/26 11:00:06;;;;;;;7.13;6.93;;;;;;;;;;5033623;28;21159;-71
2023/07/26 11:02:38;;;;;;;8.10;7.50;;;;;;;;;;5026288;28;20636;-69
2023/07/26 11:05:12;;;;;;;8.63;8.07;;;;;;;;;;5031898;28;20969;-69
2023/07/26 11:07:59;;;;;;;7.10;6.83;;;;;;;;;;5028578;28;20654;-69
2023/07/26 11:10:29;;;;;;;7.77;7.40;;;;;;;;;;5032534;28;20724;-68
2023/07/26 11:13:10;;;;;;;7.73;7.43;;;;;;;;;;5031446;28;20616;-68
2023/07/26 11:15:39;;;;;;;7.80;7.50;;;;;;;;;;5016417;28;20563;-69
2023/07/26 11:18:08;;;;;;;7.87;7.43;;;;;;;;;;5032681;28;21033;-68
2023/07/26 11:20:40;;;;;;;7.00;6.70;;;;;;;;;;5034185;28;20608;-68
2023/07/26 11:23:18;;;;;;;7.40;7.00;;;;;;;;;;5032292;28;20622;-68
2023/07/26 11:25:46;;;;;;;8.30;7.90;;;;;;;;;;5038945;28;20745;-67
2023/07/26 11:28:15;;;;;;;7.60;7.10;;;;;;;;;;5034443;28;20660;-69
2023/07/26 11:30:47;;;;;;;8.20;7.80;;;;;;;;;;5022397;28;20641;-68
2023/07/26 11:33:15;;;;;;;8.17;7.87;;;;;;;;;;5018118;28;20943;-67
2023/07/26 11:35:44;;;;;;;8.30;7.90;;;;;;;;;;5033636;28;20975;-69
2023/07/26 11:38:14;;;;;;;8.50;7.80;;;;;;;;;;5031150;28;20604;-68
2023/07/26 11:40:43;;;;;;;8.53;8.03;;;;;;;;;;5013571;28;20958;-69
2023/07/26 11:43:12;;;;;;;9.53;9.10;;;;;;;;;;5029731;28;20631;-69
2023/07/26 11:45:43;;;;;;;10.13;9.73;;;;;;;;;;5033639;28;20967;-68
2023/07/26 11:48:14;;;;;;;10.13;9.67;;;;;;;;;;5032919;28;20638;-67
2023/07/26 11:50:42;;;;;;;11.40;10.90;;;;;;;;;;5033538;28;20555;-69
2023/07/26 11:53:12;;;;;;;11.60;10.77;;;;;;;;;;5032846;28;20642;-69
2023/07/26 11:55:42;;;;;;;11.30;10.80;;;;;;;;;;5033318;28;20657;-69
2023/07/26 11:58:10;;;;;;;12.17;11.57;;;;;;;;;;5032496;28;20627;-68
2023/07/26 12:00:39;;;;;;;11.20;10.80;;;;;;;;;;5029763;28;20654;-67
2023/07/26 12:03:08;;;;;;;11.43;10.73;;;;;;;;;;5029946;28;20666;-66
2023/07/26 12:05:36;;;;;;;11.23;10.73;;;;;;;;;;5012257;28;21186;-67
2023/07/26 12:08:07;;;;;;;11.43;10.90;;;;;;;;;;5012946;28;20653;-68
2023/07/26 12:10:37;;;;;;;12.30;11.40;;;;;;;;;;5015000;28;20668;-65
2023/07/26 12:13:08;;;;;;;11.50;10.90;;;;;;;;;;5002209;28;20628;-66
2023/07/26 12:15:50;;;;;;;12.20;11.57;;;;;;;;;;5019543;28;21166;-67
2023/07/26 12:18:18;;;;;;;12.80;12.00;;;;;;;;;;5011727;28;20586;-66
2023/07/26 12:20:57;;;;;;;13.20;12.23;;;;;;;;;;5012723;28;20675;-67
2023/07/26 12:23:27;;;;;;;14.27;13.30;;;;;;;;;;5020451;28;21015;-67
2023/07/26 12:25:57;;;;;;;12.67;12.07;;;;;;;;;;5030594;28;20644;-66
2023/07/26 12:28:25;;;;;;;13.30;12.47;;;;;;;;;;5031460;28;21185;-67
2023/07/26 12:30:54;;;;;;;12.60;12.00;;;;;;;;;;5031783;28;20620;-67
2023/07/26 12:33:23;;;;;;;13.77;13.07;;;;;;;;;;5031879;28;20593;-67
2023/07/26 12:35:53;;;;;;;13.27;12.43;;;;;;;;;;5032046;28;21136;-67
2023/07/26 12:38:22;;;;;;;13.10;12.40;;;;;;;;;;5032230;28;20612;-67
2023/07/26 12:40:51;;;;;;;13.33;12.73;;;;;;;;;;5014040;28;20677;-67
2023/07/26 12:43:25;;;;;;;14.47;13.70;;;;;;;;;;5014437;28;20614;-67
2023/07/26 12:45:54;;;;;;;13.73;13.13;;;;;;;;;;5031179;28;20610;-68
2023/07/26 12:48:23;;;;;;;14.17;13.33;;;;;;;;;;5032120;28;20647;-67
2023/07/26 12:50:52;;;;;;;13.80;13.10;;;;;;;;;;5026618;28;20673;-67
2023/07/26 12:53:20;;;;;;;13.77;13.07;;;;;;;;;;5014840;28;20641;-67
2023/07/26 12:55:49;;;;;;;14.10;13.50;;;;;;;;;;5014202;28;20693;-66
2023/07/26 12:58:17;;;;;;;14.13;13.43;;;;;;;;;;5022398;28;20976;-66
2023/07/26 13:00:47;;;;;;;14.53;13.83;;;;;;;;;;5009573;28;20623;-67
2023/07/26 13:03:16;;;;;;;14.80;14.00;;;;;;;;;;5026358;28;20670;-68
2023/07/26 13:05:44;;;;;;;14.93;14.03;;;;;;;;;;5027626;28;21019;-66
2023/07/26 13:08:12;;;;;;;14.70;14.00;;;;;;;;;;5031585;28;20662;-66
2023/07/26 13:10:40;;;;;;;14.63;13.63;;;;;;;;;;5018819;28;20663;-66
2023/07/26 13:13:08;;;;;;;14.60;13.90;;;;;;;;;;5011294;28;21216;-67
2023/07/26 13:15:36;;;;;;;14.10;13.30;;;;;;;;;;5013543;28;20635;-67
2023/07/26 13:18:06;;;;;;;15.07;14.03;;;;;;;;;;5011216;28;20628;-66
2023/07/26 13:20:34;;;;;;;14.10;13.50;;;;;;;;;;5018495;28;20618;-66
2023/07/26 13:23:02;;;;;;;14.27;13.47;;;;;;;;;;5031330;28;20608;-67
2023/07/26 13:25:31;;;;;;;14.50;13.37;;;;;;;;;;5016998;28;20619;-67
2023/07/26 13:27:59;;;;;;;13.63;13.03;;;;;;;;;;5011621;28;20678;-66
2023/07/26 13:30:27;;;;;;;14.27;13.47;;;;;;;;;;5009661;28;20974;-66
2023/07/26 13:32:55;;;;;;;14.70;13.87;;;;;;;;;;5011109;28;21075;-66
2023/07/26 13:35:25;;;;;;;14.10;13.40;;;;;;;;;;5017853;28;20635;-66
2023/07/26 13:37:55;;;;;;;13.93;13.23;;;;;;;;;;5031234;28;20670;-66
2023/07/26 13:40:23;;;;;;;14.40;13.43;;;;;;;;;;5017485;28;21162;-67
2023/07/26 13:42:51;;;;;;;13.93;13.23;;;;;;;;;;5011577;28;20627;-67
2023/07/26 13:45:19;;;;;;;13.70;13.20;;;;;;;;;;5010082;28;20617;-66
2023/07/26 13:47:47;;;;;;;13.53;12.93;;;;;;;;;;5011462;28;20635;-67
2023/07/26 13:50:16;;;;;;;14.87;13.40;;;;;;;;;;5009907;28;20723;-67
2023/07/26 13:52:45;;;;;;;13.97;13.30;;;;;;;;;;5030665;28;20616;-67
2023/07/26 13:55:13;;;;;;;13.43;12.83;;;;;;;;;;5026810;28;20628;-66
2023/07/26 13:57:42;;;;;;;13.50;13.00;;;;;;;;;;5030639;28;20626;-67
2023/07/26 14:00:10;;;;;;;12.70;12.20;;;;;;;;;;5029756;28;20620;-67
2023/07/26 14:02:41;;;;;;;13.10;12.60;;;;;;;;;;5030423;28;21114;-67
2023/07/26 14:05:10;;;;;;;13.77;13.13;;;;;;;;;;5032930;28;20626;-66
2023/07/26 14:07:38;;;;;;;14.07;13.43;;;;;;;;;;5035028;28;20641;-67
2023/07/26 14:10:08;;;;;;;14.30;13.70;;;;;;;;;;5034156;28;20659;-67
2023/07/26 14:12:36;;;;;;;13.93;13.33;;;;;;;;;;5034940;28;20637;-67
2023/07/26 14:15:05;;;;;;;14.17;13.57;;;;;;;;;;5034293;28;20628;-67
2023/07/26 14:17:34;;;;;;;14.13;13.53;;;;;;;;;;5034551;28;20611;-67
2023/07/26 14:20:02;;;;;;;13.97;13.40;;;;;;;;;;5034663;28;20627;-68
2023/07/26 14:22:30;;;;;;;14.47;13.87;;;;;;;;;;5034475;28;20624;-68
2023/07/26 14:24:58;;;;;;;14.20;13.50;;;;;;;;;;5034589;28;21141;-67
2023/07/26 14:27:28;;;;;;;14.13;13.53;;;;;;;;;;5016785;28;21257;-67
2023/07/26 14:29:56;;;;;;;14.47;13.87;;;;;;;;;;5034631;28;20705;-67
2023/07/26 14:32:24;;;;;;;14.47;13.77;;;;;;;;;;5035053;28;20627;-68
2023/07/26 14:34:52;;;;;;;15.90;15.10;;;;;;;;;;5034310;28;20616;-68
2023/07/26 14:37:21;;;;;;;14.80;14.20;;;;;;;;;;5016771;28;20612;-68
2023/07/26 14:39:49;;;;;;;15.10;14.50;;;;;;;;;;5033886;28;20612;-68